sensor_id;sensor_type;location;lat;lon;timestamp;P1;durP1;ratioP1;P2;durP2;ratioP2
34814;SDS011;21030;53.912;15.214;2024-02-26T00:00:39;1.02;;;0.35;;
34814;SDS011;21030;53.912;15.214;2024-02-26T00:03:07;0.43;;;0.43;;
34814;SDS011;21030;53.912;15.214;2024-02-26T00:05:34;0.17;;;0.17;;
34814;SDS011;21030;53.912;15.214;2024-02-26T00:08:01;0.73;;;0.40;;
34814;SDS011;21030;53.912;15.214;2024-02-26T00:10:31;0.00;;;0.00;;
34814;SDS011;21030;53.912;15.214;2024-02-26T00:12:58;0.28;;;0.20;;
34814;SDS011;21030;53.912;15.214;2024-02-26T00:15:25;1.33;;;0.52;;
34814;SDS011;21030;53.912;15.214;2024-02-26T00:17:54;0.00;;;0.00;;
34814;SDS011;21030;53.912;15.214;2024-02-26T00:20:21;2.28;;;0.43;;
34814;SDS011;21030;53.912;15.214;2024-02-26T00:22:48;0.00;;;0.00;;
34814;SDS011;21030;53.912;15.214;2024-02-26T00:25:15;0.22;;;0.22;;
34814;SDS011;21030;53.912;15.214;2024-02-26T00:27:42;0.00;;;0.00;;
34814;SDS011;21030;53.912;15.214;2024-02-26T00:30:10;0.25;;;0.25;;
34814;SDS011;21030;53.912;15.214;2024-02-26T00:32:38;0.77;;;0.25;;
34814;SDS011;21030;53.912;15.214;2024-02-26T00:35:06;0.00;;;0.00;;
34814;SDS011;21030;53.912;15.214;2024-02-26T00:37:36;0.30;;;0.30;;
34814;SDS011;21030;53.912;15.214;2024-02-26T00:40:03;2.28;;;0.70;;
34814;SDS011;21030;53.912;15.214;2024-02-26T00:42:30;0.10;;;0.10;;
34814;SDS011;21030;53.912;15.214;2024-02-26T00:44:57;0.20;;;0.20;;
34814;SDS011;21030;53.912;15.214;2024-02-26T00:47:24;0.00;;;0.00;;
34814;SDS011;21030;53.912;15.214;2024-02-26T00:49:51;0.45;;;0.40;;
34814;SDS011;21030;53.912;15.214;2024-02-26T00:52:18;0.30;;;0.25;;
34814;SDS011;21030;53.912;15.214;2024-02-26T00:54:45;1.65;;;1.23;;
34814;SDS011;21030;53.912;15.214;2024-02-26T00:57:12;0.75;;;0.57;;
34814;SDS011;21030;53.912;15.214;2024-02-26T00:59:39;0.50;;;0.38;;
34814;SDS011;21030;53.912;15.214;2024-02-26T01:02:06;1.20;;;1.02;;
34814;SDS011;21030;53.912;15.214;2024-02-26T01:04:33;4.82;;;0.55;;
34814;SDS011;21030;53.912;15.214;2024-02-26T01:07:00;2.22;;;0.52;;
34814;SDS011;21030;53.912;15.214;2024-02-26T01:09:28;0.20;;;0.10;;
34814;SDS011;21030;53.912;15.214;2024-02-26T01:11:55;0.10;;;0.10;;
34814;SDS011;21030;53.912;15.214;2024-02-26T01:14:21;0.47;;;0.30;;
34814;SDS011;21030;53.912;15.214;2024-02-26T01:16:49;0.10;;;0.10;;
34814;SDS011;21030;53.912;15.214;2024-02-26T01:19:16;0.10;;;0.10;;
34814;SDS011;21030;53.912;15.214;2024-02-26T01:21:43;0.80;;;0.45;;
34814;SDS011;21030;53.912;15.214;2024-02-26T01:24:10;0.17;;;0.10;;
34814;SDS011;21030;53.912;15.214;2024-02-26T01:26:37;0.55;;;0.52;;
34814;SDS011;21030;53.912;15.214;2024-02-26T01:29:04;0.45;;;0.20;;
34814;SDS011;21030;53.912;15.214;2024-02-26T01:31:31;0.17;;;0.15;;
34814;SDS011;21030;53.912;15.214;2024-02-26T01:33:58;0.10;;;0.10;;
34814;SDS011;21030;53.912;15.214;2024-02-26T01:36:26;0.10;;;0.10;;
34814;SDS011;21030;53.912;15.214;2024-02-26T01:38:53;0.20;;;0.20;;
34814;SDS011;21030;53.912;15.214;2024-02-26T01:41:20;0.75;;;0.75;;
34814;SDS011;21030;53.912;15.214;2024-02-26T01:43:47;0.00;;;0.00;;
34814;SDS011;21030;53.912;15.214;2024-02-26T01:46:14;0.95;;;0.35;;
34814;SDS011;21030;53.912;15.214;2024-02-26T01:48:42;1.08;;;0.20;;
34814;SDS011;21030;53.912;15.214;2024-02-26T01:51:10;0.10;;;0.10;;
34814;SDS011;21030;53.912;15.214;2024-02-26T01:53:40;0.00;;;0.00;;
34814;SDS011;21030;53.912;15.214;2024-02-26T01:56:07;1.80;;;0.30;;
34814;SDS011;21030;53.912;15.214;2024-02-26T01:58:35;4.03;;;0.30;;
34814;SDS011;21030;53.912;15.214;2024-02-26T02:01:03;0.98;;;0.52;;
34814;SDS011;21030;53.912;15.214;2024-02-26T02:03:30;0.65;;;0.65;;
34814;SDS011;21030;53.912;15.214;2024-02-26T02:05:57;0.98;;;0.40;;
34814;SDS011;21030;53.912;15.214;2024-02-26T02:08:25;1.02;;;0.70;;
34814;SDS011;21030;53.912;15.214;2024-02-26T02:10:52;0.40;;;0.40;;
34814;SDS011;21030;53.912;15.214;2024-02-26T02:13:20;0.20;;;0.20;;
34814;SDS011;21030;53.912;15.214;2024-02-26T02:15:47;0.60;;;0.30;;
34814;SDS011;21030;53.912;15.214;2024-02-26T02:18:14;0.00;;;0.00;;
34814;SDS011;21030;53.912;15.214;2024-02-26T02:20:41;0.10;;;0.05;;
34814;SDS011;21030;53.912;15.214;2024-02-26T02:23:08;0.00;;;0.00;;
34814;SDS011;21030;53.912;15.214;2024-02-26T02:25:35;0.75;;;0.10;;
34814;SDS011;21030;53.912;15.214;2024-02-26T02:28:02;0.47;;;0.30;;
34814;SDS011;21030;53.912;15.214;2024-02-26T02:30:29;0.00;;;0.00;;
34814;SDS011;21030;53.912;15.214;2024-02-26T02:32:59;0.38;;;0.35;;
34814;SDS011;21030;53.912;15.214;2024-02-26T02:35:28;0.22;;;0.20;;
34814;SDS011;21030;53.912;15.214;2024-02-26T02:37:58;0.20;;;0.17;;
34814;SDS011;21030;53.912;15.214;2024-02-26T02:40:27;0.00;;;0.00;;
34814;SDS011;21030;53.912;15.214;2024-02-26T02:42:56;0.75;;;0.50;;
34814;SDS011;21030;53.912;15.214;2024-02-26T02:45:26;0.00;;;0.00;;
34814;SDS011;21030;53.912;15.214;2024-02-26T02:47:55;1.08;;;0.47;;
34814;SDS011;21030;53.912;15.214;2024-02-26T02:50:43;0.55;;;0.35;;
34814;SDS011;21030;53.912;15.214;2024-02-26T02:53:12;2.50;;;0.55;;
34814;SDS011;21030;53.912;15.214;2024-02-26T02:55:44;1.27;;;0.70;;
34814;SDS011;21030;53.912;15.214;2024-02-26T02:58:13;0.90;;;0.28;;
34814;SDS011;21030;53.912;15.214;2024-02-26T03:00:41;4.18;;;0.10;;
34814;SDS011;21030;53.912;15.214;2024-02-26T03:03:11;0.80;;;0.10;;
34814;SDS011;21030;53.912;15.214;2024-02-26T03:05:40;0.38;;;0.20;;
34814;SDS011;21030;53.912;15.214;2024-02-26T03:08:08;0.17;;;0.15;;
34814;SDS011;21030;53.912;15.214;2024-02-26T03:10:38;0.20;;;0.20;;
34814;SDS011;21030;53.912;15.214;2024-02-26T03:13:07;0.15;;;0.13;;
34814;SDS011;21030;53.912;15.214;2024-02-26T03:15:36;0.00;;;0.00;;
34814;SDS011;21030;53.912;15.214;2024-02-26T03:18:05;0.22;;;0.20;;
34814;SDS011;21030;53.912;15.214;2024-02-26T03:20:35;0.28;;;0.25;;
34814;SDS011;21030;53.912;15.214;2024-02-26T03:23:04;0.85;;;0.47;;
34814;SDS011;21030;53.912;15.214;2024-02-26T03:25:33;0.13;;;0.13;;
34814;SDS011;21030;53.912;15.214;2024-02-26T03:28:02;0.20;;;0.20;;
34814;SDS011;21030;53.912;15.214;2024-02-26T03:30:30;0.90;;;0.28;;
34814;SDS011;21030;53.912;15.214;2024-02-26T03:32:58;0.35;;;0.30;;
34814;SDS011;21030;53.912;15.214;2024-02-26T03:35:27;0.32;;;0.28;;
34814;SDS011;21030;53.912;15.214;2024-02-26T03:37:56;1.40;;;0.40;;
34814;SDS011;21030;53.912;15.214;2024-02-26T03:40:25;0.00;;;0.00;;
34814;SDS011;21030;53.912;15.214;2024-02-26T03:42:54;0.95;;;0.57;;
34814;SDS011;21030;53.912;15.214;2024-02-26T03:45:24;1.70;;;0.65;;
34814;SDS011;21030;53.912;15.214;2024-02-26T03:47:54;1.60;;;0.93;;
34814;SDS011;21030;53.912;15.214;2024-02-26T03:50:23;0.17;;;0.10;;
34814;SDS011;21030;53.912;15.214;2024-02-26T03:52:52;0.15;;;0.13;;
34814;SDS011;21030;53.912;15.214;2024-02-26T03:55:22;0.55;;;0.47;;
34814;SDS011;21030;53.912;15.214;2024-02-26T03:57:52;1.95;;;0.90;;
34814;SDS011;21030;53.912;15.214;2024-02-26T04:00:21;0.00;;;0.00;;
34814;SDS011;21030;53.912;15.214;2024-02-26T04:02:50;0.20;;;0.03;;
34814;SDS011;21030;53.912;15.214;2024-02-26T04:05:19;0.20;;;0.10;;
34814;SDS011;21030;53.912;15.214;2024-02-26T04:07:47;0.77;;;0.73;;
34814;SDS011;21030;53.912;15.214;2024-02-26T04:10:16;0.65;;;0.50;;
34814;SDS011;21030;53.912;15.214;2024-02-26T04:12:46;0.77;;;0.40;;
34814;SDS011;21030;53.912;15.214;2024-02-26T04:15:14;0.70;;;0.15;;
34814;SDS011;21030;53.912;15.214;2024-02-26T04:17:44;1.10;;;0.38;;
34814;SDS011;21030;53.912;15.214;2024-02-26T04:20:14;0.10;;;0.10;;
34814;SDS011;21030;53.912;15.214;2024-02-26T04:22:44;0.00;;;0.00;;
34814;SDS011;21030;53.912;15.214;2024-02-26T04:25:13;1.13;;;0.45;;
34814;SDS011;21030;53.912;15.214;2024-02-26T04:27:42;0.00;;;0.00;;
34814;SDS011;21030;53.912;15.214;2024-02-26T04:30:11;0.25;;;0.20;;
34814;SDS011;21030;53.912;15.214;2024-02-26T04:32:40;0.52;;;0.40;;
34814;SDS011;21030;53.912;15.214;2024-02-26T04:35:10;0.00;;;0.00;;
34814;SDS011;21030;53.912;15.214;2024-02-26T04:37:38;2.20;;;0.82;;
34814;SDS011;21030;53.912;15.214;2024-02-26T04:40:07;0.10;;;0.05;;
34814;SDS011;21030;53.912;15.214;2024-02-26T04:42:36;0.57;;;0.47;;
34814;SDS011;21030;53.912;15.214;2024-02-26T04:45:04;0.90;;;0.52;;
34814;SDS011;21030;53.912;15.214;2024-02-26T04:47:34;0.22;;;0.10;;
34814;SDS011;21030;53.912;15.214;2024-02-26T04:50:03;0.10;;;0.10;;
34814;SDS011;21030;53.912;15.214;2024-02-26T04:52:32;0.20;;;0.20;;
34814;SDS011;21030;53.912;15.214;2024-02-26T04:55:01;0.13;;;0.08;;
34814;SDS011;21030;53.912;15.214;2024-02-26T04:57:31;3.40;;;0.60;;
34814;SDS011;21030;53.912;15.214;2024-02-26T04:59:59;4.90;;;0.50;;
34814;SDS011;21030;53.912;15.214;2024-02-26T05:02:27;1.48;;;0.70;;
34814;SDS011;21030;53.912;15.214;2024-02-26T05:04:56;3.63;;;0.65;;
34814;SDS011;21030;53.912;15.214;2024-02-26T05:07:23;0.15;;;0.15;;
34814;SDS011;21030;53.912;15.214;2024-02-26T05:09:50;0.10;;;0.10;;
34814;SDS011;21030;53.912;15.214;2024-02-26T05:12:18;1.05;;;0.60;;
34814;SDS011;21030;53.912;15.214;2024-02-26T05:14:45;1.13;;;0.30;;
34814;SDS011;21030;53.912;15.214;2024-02-26T05:17:12;0.38;;;0.38;;
34814;SDS011;21030;53.912;15.214;2024-02-26T05:19:39;4.30;;;0.30;;
34814;SDS011;21030;53.912;15.214;2024-02-26T05:22:06;0.57;;;0.52;;
34814;SDS011;21030;53.912;15.214;2024-02-26T05:24:33;0.50;;;0.50;;
34814;SDS011;21030;53.912;15.214;2024-02-26T05:27:00;0.40;;;0.35;;
34814;SDS011;21030;53.912;15.214;2024-02-26T05:29:27;2.55;;;0.65;;
34814;SDS011;21030;53.912;15.214;2024-02-26T05:31:54;0.00;;;0.00;;
34814;SDS011;21030;53.912;15.214;2024-02-26T05:34:21;0.75;;;0.30;;
34814;SDS011;21030;53.912;15.214;2024-02-26T05:36:48;1.73;;;0.32;;
34814;SDS011;21030;53.912;15.214;2024-02-26T05:39:15;2.28;;;1.17;;
34814;SDS011;21030;53.912;15.214;2024-02-26T05:41:46;0.55;;;0.32;;
34814;SDS011;21030;53.912;15.214;2024-02-26T05:44:13;0.13;;;0.13;;
34814;SDS011;21030;53.912;15.214;2024-02-26T05:46:41;0.43;;;0.43;;
34814;SDS011;21030;53.912;15.214;2024-02-26T05:49:08;0.20;;;0.10;;
34814;SDS011;21030;53.912;15.214;2024-02-26T05:51:35;1.13;;;0.38;;
34814;SDS011;21030;53.912;15.214;2024-02-26T05:54:02;4.75;;;1.20;;
34814;SDS011;21030;53.912;15.214;2024-02-26T05:56:30;7.70;;;0.95;;
34814;SDS011;21030;53.912;15.214;2024-02-26T05:58:57;0.52;;;0.28;;
34814;SDS011;21030;53.912;15.214;2024-02-26T06:01:24;0.88;;;0.45;;
34814;SDS011;21030;53.912;15.214;2024-02-26T06:03:52;1.75;;;0.93;;
34814;SDS011;21030;53.912;15.214;2024-02-26T06:06:19;0.17;;;0.17;;
34814;SDS011;21030;53.912;15.214;2024-02-26T06:08:48;1.33;;;0.32;;
34814;SDS011;21030;53.912;15.214;2024-02-26T06:11:15;0.20;;;0.20;;
34814;SDS011;21030;53.912;15.214;2024-02-26T06:13:42;1.27;;;0.73;;
34814;SDS011;21030;53.912;15.214;2024-02-26T06:16:09;2.05;;;0.32;;
34814;SDS011;21030;53.912;15.214;2024-02-26T06:18:36;1.20;;;0.60;;
34814;SDS011;21030;53.912;15.214;2024-02-26T06:21:04;0.98;;;0.60;;
34814;SDS011;21030;53.912;15.214;2024-02-26T06:23:31;0.52;;;0.52;;
34814;SDS011;21030;53.912;15.214;2024-02-26T06:25:58;0.88;;;0.43;;
34814;SDS011;21030;53.912;15.214;2024-02-26T06:28:25;2.25;;;1.13;;
34814;SDS011;21030;53.912;15.214;2024-02-26T06:30:52;11.35;;;2.85;;
34814;SDS011;21030;53.912;15.214;2024-02-26T06:33:19;4.88;;;2.75;;
34814;SDS011;21030;53.912;15.214;2024-02-26T06:35:46;16.90;;;4.20;;
34814;SDS011;21030;53.912;15.214;2024-02-26T06:38:14;2.40;;;2.22;;
34814;SDS011;21030;53.912;15.214;2024-02-26T06:40:41;5.20;;;3.03;;
34814;SDS011;21030;53.912;15.214;2024-02-26T06:43:08;7.85;;;2.20;;
34814;SDS011;21030;53.912;15.214;2024-02-26T06:45:35;0.50;;;0.45;;
34814;SDS011;21030;53.912;15.214;2024-02-26T06:48:02;2.70;;;1.50;;
34814;SDS011;21030;53.912;15.214;2024-02-26T06:50:30;0.55;;;0.40;;
34814;SDS011;21030;53.912;15.214;2024-02-26T06:52:57;2.50;;;0.77;;
34814;SDS011;21030;53.912;15.214;2024-02-26T06:55:23;2.70;;;1.30;;
34814;SDS011;21030;53.912;15.214;2024-02-26T06:57:50;0.80;;;0.75;;
34814;SDS011;21030;53.912;15.214;2024-02-26T07:00:17;0.20;;;0.20;;
34814;SDS011;21030;53.912;15.214;2024-02-26T07:02:45;0.45;;;0.25;;
34814;SDS011;21030;53.912;15.214;2024-02-26T07:05:12;2.67;;;2.15;;
34814;SDS011;21030;53.912;15.214;2024-02-26T07:07:39;3.70;;;1.23;;
34814;SDS011;21030;53.912;15.214;2024-02-26T07:10:06;4.70;;;0.77;;
34814;SDS011;21030;53.912;15.214;2024-02-26T07:12:34;1.42;;;0.68;;
34814;SDS011;21030;53.912;15.214;2024-02-26T07:15:01;2.13;;;1.23;;
34814;SDS011;21030;53.912;15.214;2024-02-26T07:17:29;1.20;;;0.55;;
34814;SDS011;21030;53.912;15.214;2024-02-26T07:19:56;4.32;;;1.77;;
34814;SDS011;21030;53.912;15.214;2024-02-26T07:22:23;3.30;;;1.52;;
34814;SDS011;21030;53.912;15.214;2024-02-26T07:24:50;1.58;;;1.15;;
34814;SDS011;21030;53.912;15.214;2024-02-26T07:27:18;1.85;;;1.40;;
34814;SDS011;21030;53.912;15.214;2024-02-26T07:29:45;0.65;;;0.50;;
34814;SDS011;21030;53.912;15.214;2024-02-26T07:32:13;4.88;;;1.55;;
34814;SDS011;21030;53.912;15.214;2024-02-26T07:34:40;1.25;;;0.85;;
34814;SDS011;21030;53.912;15.214;2024-02-26T07:39:38;7.00;;;2.20;;
34814;SDS011;21030;53.912;15.214;2024-02-26T07:42:05;1.25;;;0.90;;
34814;SDS011;21030;53.912;15.214;2024-02-26T07:44:33;6.00;;;1.67;;
34814;SDS011;21030;53.912;15.214;2024-02-26T07:47:00;2.92;;;1.80;;
34814;SDS011;21030;53.912;15.214;2024-02-26T07:49:27;3.28;;;1.25;;
34814;SDS011;21030;53.912;15.214;2024-02-26T07:51:54;4.30;;;1.48;;
34814;SDS011;21030;53.912;15.214;2024-02-26T07:54:24;7.88;;;1.80;;
34814;SDS011;21030;53.912;15.214;2024-02-26T07:56:51;5.80;;;1.73;;
34814;SDS011;21030;53.912;15.214;2024-02-26T07:59:19;2.15;;;1.33;;
34814;SDS011;21030;53.912;15.214;2024-02-26T08:01:49;3.00;;;1.98;;
34814;SDS011;21030;53.912;15.214;2024-02-26T08:04:24;3.88;;;1.92;;
34814;SDS011;21030;53.912;15.214;2024-02-26T08:06:53;4.25;;;1.92;;
34814;SDS011;21030;53.912;15.214;2024-02-26T08:09:20;3.55;;;1.85;;
34814;SDS011;21030;53.912;15.214;2024-02-26T08:11:47;5.05;;;2.42;;
34814;SDS011;21030;53.912;15.214;2024-02-26T08:14:14;3.40;;;1.35;;
34814;SDS011;21030;53.912;15.214;2024-02-26T08:16:41;3.22;;;1.65;;
34814;SDS011;21030;53.912;15.214;2024-02-26T08:19:08;2.58;;;0.85;;
34814;SDS011;21030;53.912;15.214;2024-02-26T08:21:38;4.30;;;2.70;;
34814;SDS011;21030;53.912;15.214;2024-02-26T08:24:05;5.05;;;2.13;;
34814;SDS011;21030;53.912;15.214;2024-02-26T08:26:32;4.03;;;2.05;;
34814;SDS011;21030;53.912;15.214;2024-02-26T08:28:59;3.17;;;2.20;;
34814;SDS011;21030;53.912;15.214;2024-02-26T08:31:26;2.78;;;2.00;;
34814;SDS011;21030;53.912;15.214;2024-02-26T08:33:54;2.50;;;1.27;;
34814;SDS011;21030;53.912;15.214;2024-02-26T08:36:21;3.78;;;2.35;;
34814;SDS011;21030;53.912;15.214;2024-02-26T08:38:48;2.65;;;1.73;;
34814;SDS011;21030;53.912;15.214;2024-02-26T08:41:15;3.45;;;2.13;;
34814;SDS011;21030;53.912;15.214;2024-02-26T08:43:43;3.28;;;2.40;;
34814;SDS011;21030;53.912;15.214;2024-02-26T08:46:10;4.25;;;2.17;;
34814;SDS011;21030;53.912;15.214;2024-02-26T08:48:39;7.13;;;2.90;;
34814;SDS011;21030;53.912;15.214;2024-02-26T08:51:07;7.75;;;2.28;;
34814;SDS011;21030;53.912;15.214;2024-02-26T08:53:38;4.88;;;2.42;;
34814;SDS011;21030;53.912;15.214;2024-02-26T08:56:09;6.40;;;3.28;;
34814;SDS011;21030;53.912;15.214;2024-02-26T08:58:44;6.72;;;2.45;;
34814;SDS011;21030;53.912;15.214;2024-02-26T09:01:12;4.07;;;1.88;;
34814;SDS011;21030;53.912;15.214;2024-02-26T09:03:39;4.72;;;2.58;;
34814;SDS011;21030;53.912;15.214;2024-02-26T09:06:07;4.50;;;2.35;;
34814;SDS011;21030;53.912;15.214;2024-02-26T09:08:34;8.95;;;2.03;;
34814;SDS011;21030;53.912;15.214;2024-02-26T09:11:02;4.90;;;1.73;;
34814;SDS011;21030;53.912;15.214;2024-02-26T09:13:30;4.72;;;2.15;;
34814;SDS011;21030;53.912;15.214;2024-02-26T09:15:57;4.65;;;1.85;;
34814;SDS011;21030;53.912;15.214;2024-02-26T09:18:25;2.35;;;1.67;;
34814;SDS011;21030;53.912;15.214;2024-02-26T09:20:53;2.78;;;1.80;;
34814;SDS011;21030;53.912;15.214;2024-02-26T09:23:20;3.70;;;1.90;;
34814;SDS011;21030;53.912;15.214;2024-02-26T09:25:47;5.00;;;2.10;;
34814;SDS011;21030;53.912;15.214;2024-02-26T09:28:14;2.05;;;1.20;;
34814;SDS011;21030;53.912;15.214;2024-02-26T09:30:44;4.95;;;2.63;;
34814;SDS011;21030;53.912;15.214;2024-02-26T09:33:11;4.07;;;2.22;;
34814;SDS011;21030;53.912;15.214;2024-02-26T09:35:40;4.72;;;1.48;;
34814;SDS011;21030;53.912;15.214;2024-02-26T09:38:08;2.83;;;1.77;;
34814;SDS011;21030;53.912;15.214;2024-02-26T09:40:35;6.95;;;2.45;;
34814;SDS011;21030;53.912;15.214;2024-02-26T09:43:04;2.53;;;1.73;;
34814;SDS011;21030;53.912;15.214;2024-02-26T09:45:32;3.25;;;1.92;;
34814;SDS011;21030;53.912;15.214;2024-02-26T09:48:01;7.35;;;2.67;;
34814;SDS011;21030;53.912;15.214;2024-02-26T09:50:31;8.90;;;2.42;;
34814;SDS011;21030;53.912;15.214;2024-02-26T09:52:58;5.03;;;2.15;;
34814;SDS011;21030;53.912;15.214;2024-02-26T09:55:29;3.28;;;1.90;;
34814;SDS011;21030;53.912;15.214;2024-02-26T09:57:56;7.35;;;2.63;;
34814;SDS011;21030;53.912;15.214;2024-02-26T10:00:24;3.65;;;1.73;;
34814;SDS011;21030;53.912;15.214;2024-02-26T10:03:00;4.88;;;2.47;;
34814;SDS011;21030;53.912;15.214;2024-02-26T10:05:31;5.13;;;2.13;;
34814;SDS011;21030;53.912;15.214;2024-02-26T10:08:00;5.87;;;2.30;;
34814;SDS011;21030;53.912;15.214;2024-02-26T10:10:28;3.85;;;1.73;;
34814;SDS011;21030;53.912;15.214;2024-02-26T10:12:55;3.75;;;2.08;;
34814;SDS011;21030;53.912;15.214;2024-02-26T10:15:22;6.90;;;2.47;;
34814;SDS011;21030;53.912;15.214;2024-02-26T10:17:50;3.38;;;1.60;;
34814;SDS011;21030;53.912;15.214;2024-02-26T10:20:17;4.45;;;2.15;;
34814;SDS011;21030;53.912;15.214;2024-02-26T10:22:48;3.88;;;1.92;;
34814;SDS011;21030;53.912;15.214;2024-02-26T10:25:15;3.67;;;1.73;;
34814;SDS011;21030;53.912;15.214;2024-02-26T10:27:42;2.83;;;1.48;;
34814;SDS011;21030;53.912;15.214;2024-02-26T10:30:16;3.58;;;1.60;;
34814;SDS011;21030;53.912;15.214;2024-02-26T10:32:45;2.88;;;1.60;;
34814;SDS011;21030;53.912;15.214;2024-02-26T10:35:16;2.95;;;1.98;;
34814;SDS011;21030;53.912;15.214;2024-02-26T10:37:46;5.32;;;2.00;;
34814;SDS011;21030;53.912;15.214;2024-02-26T10:40:13;2.83;;;1.73;;
34814;SDS011;21030;53.912;15.214;2024-02-26T10:42:41;3.85;;;1.85;;
34814;SDS011;21030;53.912;15.214;2024-02-26T10:45:09;3.30;;;1.90;;
34814;SDS011;21030;53.912;15.214;2024-02-26T10:47:37;4.95;;;2.13;;
34814;SDS011;21030;53.912;15.214;2024-02-26T10:50:04;5.07;;;2.08;;
34814;SDS011;21030;53.912;15.214;2024-02-26T10:52:33;3.45;;;1.98;;
34814;SDS011;21030;53.912;15.214;2024-02-26T10:55:02;5.15;;;1.70;;
34814;SDS011;21030;53.912;15.214;2024-02-26T10:57:33;3.93;;;2.20;;
34814;SDS011;21030;53.912;15.214;2024-02-26T11:00:06;1.85;;;1.10;;
34814;SDS011;21030;53.912;15.214;2024-02-26T11:02:37;6.65;;;3.15;;
34814;SDS011;21030;53.912;15.214;2024-02-26T11:05:06;5.07;;;2.45;;
34814;SDS011;21030;53.912;15.214;2024-02-26T11:07:34;3.58;;;2.08;;
34814;SDS011;21030;53.912;15.214;2024-02-26T11:10:03;3.30;;;1.90;;
34814;SDS011;21030;53.912;15.214;2024-02-26T11:12:32;2.35;;;1.27;;
34814;SDS011;21030;53.912;15.214;2024-02-26T11:15:04;4.68;;;2.35;;
34814;SDS011;21030;53.912;15.214;2024-02-26T11:17:32;4.82;;;1.67;;
34814;SDS011;21030;53.912;15.214;2024-02-26T11:20:01;5.30;;;2.00;;
34814;SDS011;21030;53.912;15.214;2024-02-26T11:22:29;6.45;;;2.25;;
34814;SDS011;21030;53.912;15.214;2024-02-26T11:24:56;5.28;;;1.65;;
34814;SDS011;21030;53.912;15.214;2024-02-26T11:27:25;3.95;;;1.83;;
34814;SDS011;21030;53.912;15.214;2024-02-26T11:30:01;3.03;;;1.15;;
34814;SDS011;21030;53.912;15.214;2024-02-26T11:32:32;2.10;;;1.20;;
34814;SDS011;21030;53.912;15.214;2024-02-26T11:35:01;5.60;;;1.97;;
34814;SDS011;21030;53.912;15.214;2024-02-26T11:37:31;3.35;;;1.98;;
34814;SDS011;21030;53.912;15.214;2024-02-26T11:40:03;7.63;;;2.20;;
34814;SDS011;21030;53.912;15.214;2024-02-26T11:42:31;8.35;;;2.60;;
34814;SDS011;21030;53.912;15.214;2024-02-26T11:44:59;4.35;;;2.13;;
34814;SDS011;21030;53.912;15.214;2024-02-26T11:47:27;4.05;;;1.70;;
34814;SDS011;21030;53.912;15.214;2024-02-26T11:49:55;3.72;;;1.42;;
34814;SDS011;21030;53.912;15.214;2024-02-26T11:52:22;4.13;;;2.13;;
34814;SDS011;21030;53.912;15.214;2024-02-26T11:54:49;3.00;;;1.60;;
34814;SDS011;21030;53.912;15.214;2024-02-26T12:05:16;4.18;;;2.25;;
34814;SDS011;21030;53.912;15.214;2024-02-26T12:07:47;4.30;;;2.10;;
34814;SDS011;21030;53.912;15.214;2024-02-26T12:10:17;3.20;;;1.77;;
34814;SDS011;21030;53.912;15.214;2024-02-26T12:15:30;5.65;;;1.70;;
34814;SDS011;21030;53.912;15.214;2024-02-26T12:18:00;2.83;;;1.20;;
34814;SDS011;21030;53.912;15.214;2024-02-26T12:20:28;3.97;;;2.23;;
34814;SDS011;21030;53.912;15.214;2024-02-26T12:22:56;2.53;;;1.35;;
34814;SDS011;21030;53.912;15.214;2024-02-26T12:25:24;3.80;;;1.85;;
34814;SDS011;21030;53.912;15.214;2024-02-26T12:27:53;8.00;;;2.17;;
34814;SDS011;21030;53.912;15.214;2024-02-26T12:30:21;4.43;;;1.25;;
34814;SDS011;21030;53.912;15.214;2024-02-26T12:32:49;3.83;;;1.85;;
34814;SDS011;21030;53.912;15.214;2024-02-26T12:35:17;5.32;;;1.80;;
34814;SDS011;21030;53.912;15.214;2024-02-26T12:37:45;6.38;;;2.35;;
34814;SDS011;21030;53.912;15.214;2024-02-26T12:40:13;7.88;;;2.13;;
34814;SDS011;21030;53.912;15.214;2024-02-26T12:42:40;5.13;;;1.50;;
34814;SDS011;21030;53.912;15.214;2024-02-26T12:45:08;6.13;;;2.28;;
34814;SDS011;21030;53.912;15.214;2024-02-26T12:47:41;3.30;;;1.48;;
34814;SDS011;21030;53.912;15.214;2024-02-26T12:50:10;5.00;;;2.13;;
34814;SDS011;21030;53.912;15.214;2024-02-26T12:52:44;2.75;;;1.33;;
34814;SDS011;21030;53.912;15.214;2024-02-26T12:55:16;2.70;;;1.17;;
34814;SDS011;21030;53.912;15.214;2024-02-26T12:57:46;6.63;;;2.25;;
34814;SDS011;21030;53.912;15.214;2024-02-26T13:00:16;4.55;;;2.33;;
34814;SDS011;21030;53.912;15.214;2024-02-26T13:02:52;1.80;;;0.88;;
34814;SDS011;21030;53.912;15.214;2024-02-26T13:05:22;6.68;;;2.75;;
34814;SDS011;21030;53.912;15.214;2024-02-26T13:07:49;6.20;;;1.42;;
34814;SDS011;21030;53.912;15.214;2024-02-26T13:10:19;4.32;;;2.25;;
34814;SDS011;21030;53.912;15.214;2024-02-26T13:12:47;4.15;;;1.98;;
34814;SDS011;21030;53.912;15.214;2024-02-26T13:15:19;4.00;;;1.05;;
34814;SDS011;21030;53.912;15.214;2024-02-26T13:17:48;5.55;;;1.98;;
34814;SDS011;21030;53.912;15.214;2024-02-26T13:20:26;5.70;;;2.38;;
34814;SDS011;21030;53.912;15.214;2024-02-26T13:23:05;3.75;;;1.90;;
34814;SDS011;21030;53.912;15.214;2024-02-26T13:25:34;6.55;;;2.33;;
34814;SDS011;21030;53.912;15.214;2024-02-26T13:28:18;6.20;;;2.53;;
34814;SDS011;21030;53.912;15.214;2024-02-26T13:30:52;6.93;;;2.33;;
34814;SDS011;21030;53.912;15.214;2024-02-26T13:33:24;3.65;;;2.55;;
34814;SDS011;21030;53.912;15.214;2024-02-26T13:35:52;5.90;;;1.67;;
34814;SDS011;21030;53.912;15.214;2024-02-26T13:38:20;5.28;;;1.23;;
34814;SDS011;21030;53.912;15.214;2024-02-26T13:40:47;6.68;;;2.58;;
34814;SDS011;21030;53.912;15.214;2024-02-26T13:43:14;5.97;;;2.03;;
34814;SDS011;21030;53.912;15.214;2024-02-26T13:45:41;2.53;;;1.30;;
34814;SDS011;21030;53.912;15.214;2024-02-26T13:48:08;2.40;;;1.63;;
34814;SDS011;21030;53.912;15.214;2024-02-26T13:50:40;3.25;;;1.55;;
34814;SDS011;21030;53.912;15.214;2024-02-26T13:53:09;1.48;;;0.77;;
34814;SDS011;21030;53.912;15.214;2024-02-26T13:55:37;3.38;;;2.10;;
34814;SDS011;21030;53.912;15.214;2024-02-26T13:58:06;5.60;;;2.08;;
34814;SDS011;21030;53.912;15.214;2024-02-26T14:00:33;2.50;;;1.48;;
34814;SDS011;21030;53.912;15.214;2024-02-26T14:03:01;3.90;;;1.80;;
34814;SDS011;21030;53.912;15.214;2024-02-26T14:05:29;8.80;;;3.10;;
34814;SDS011;21030;53.912;15.214;2024-02-26T14:07:56;3.53;;;1.50;;
34814;SDS011;21030;53.912;15.214;2024-02-26T14:10:24;4.05;;;1.65;;
34814;SDS011;21030;53.912;15.214;2024-02-26T14:12:51;4.50;;;1.55;;
34814;SDS011;21030;53.912;15.214;2024-02-26T14:15:18;3.80;;;1.48;;
34814;SDS011;21030;53.912;15.214;2024-02-26T14:17:45;4.20;;;2.55;;
34814;SDS011;21030;53.912;15.214;2024-02-26T14:20:20;1.33;;;1.00;;
34814;SDS011;21030;53.912;15.214;2024-02-26T14:22:47;3.63;;;0.90;;
34814;SDS011;21030;53.912;15.214;2024-02-26T14:25:15;3.05;;;1.38;;
34814;SDS011;21030;53.912;15.214;2024-02-26T14:27:42;2.78;;;1.65;;
34814;SDS011;21030;53.912;15.214;2024-02-26T14:30:09;2.22;;;1.40;;
34814;SDS011;21030;53.912;15.214;2024-02-26T14:32:36;3.03;;;1.20;;
34814;SDS011;21030;53.912;15.214;2024-02-26T14:35:07;2.22;;;1.40;;
34814;SDS011;21030;53.912;15.214;2024-02-26T14:37:41;2.25;;;0.82;;
34814;SDS011;21030;53.912;15.214;2024-02-26T14:40:13;2.15;;;1.33;;
34814;SDS011;21030;53.912;15.214;2024-02-26T14:42:40;4.32;;;1.42;;
34814;SDS011;21030;53.912;15.214;2024-02-26T14:45:08;4.75;;;1.63;;
34814;SDS011;21030;53.912;15.214;2024-02-26T14:47:36;3.65;;;2.08;;
34814;SDS011;21030;53.912;15.214;2024-02-26T14:50:04;2.53;;;1.33;;
34814;SDS011;21030;53.912;15.214;2024-02-26T14:52:32;1.73;;;1.13;;